Time;durP1;ratioP1;P1;durP2;ratioP2;P2;SDS_P1;SDS_P2;PMS_P1;PMS_P2;Temp;Humidity;BMP_temperature;BMP_pressure;BME280_temperature;BME280_humidity;BME280_pressure;Samples;Min_cycle;Max_cycle;Signal;HPM_P1;HPM_P2
2023/04/20 00:12:01;;;;;;;24.00;16.20;;;;;;;13.03;88.08;100861.53;677935;1259;140693;-79
2023/04/20 00:27:05;;;;;;;27.20;17.50;;;;;;;12.90;88.51;100855.61;676704;1262;139533;-80
2023/04/20 00:42:09;;;;;;;62.10;33.00;;;;;;;12.71;89.77;100857.63;676300;1262;139710;-80
2023/04/20 00:57:13;;;;;;;22.90;13.80;;;;;;;12.66;89.73;100836.67;678652;1258;140265;-79
2023/04/20 01:12:16;;;;;;;42.50;22.70;;;;;;;12.67;89.60;100838.66;680748;1262;140053;-80
2023/04/20 01:27:19;;;;;;;50.70;26.20;;;;;;;12.66;89.58;100832.65;680987;1262;140516;-79
2023/04/20 01:42:22;;;;;;;26.20;14.40;;;;;;;12.68;89.19;100823.15;678170;1259;139855;-79
2023/04/20 01:57:25;;;;;;;21.40;14.60;;;;;;;12.62;88.97;100829.31;678282;1257;139745;-79
2023/04/20 02:12:29;;;;;;;20.80;14.40;;;;;;;12.40;88.78;100826.44;677565;1261;139845;-80
2023/04/20 02:27:33;;;;;;;27.40;15.80;;;;;;;12.17;88.20;100835.82;678944;1260;139984;-80
2023/04/20 02:42:36;;;;;;;35.00;19.60;;;;;;;11.87;87.74;100831.67;679917;1258;139791;-80
2023/04/20 02:57:41;;;;;;;50.20;27.00;;;;;;;11.60;87.40;100829.55;679927;1258;140602;-80
2023/04/20 03:12:45;;;;;;;55.00;27.00;;;;;;;11.33;87.14;100837.76;678852;1263;140310;-81
2023/04/20 03:27:58;;;;;;;47.50;24.20;;;;;;;11.02;87.54;100849.28;675050;1262;139753;-81
2023/04/20 03:43:01;;;;;;;40.50;22.10;;;;;;;10.86;87.64;100866.38;679152;1262;139324;-80
2023/04/20 03:58:08;;;;;;;34.70;19.30;;;;;;;10.75;87.72;100877.70;678426;1263;139811;-80
2023/04/20 04:13:25;;;;;;;33.50;18.50;;;;;;;10.70;87.74;100882.67;679861;1259;139714;-80
2023/04/20 04:28:30;;;;;;;22.00;14.60;;;;;;;10.72;87.54;100887.03;680181;1263;140426;-79
2023/04/20 04:43:46;;;;;;;21.90;14.00;;;;;;;10.86;87.65;100898.07;677677;1263;139602;-79
2023/04/20 04:58:59;;;;;;;31.50;20.60;;;;;;;11.18;88.06;100913.52;677719;1263;139727;-80
2023/04/20 05:32:17;;;;;;;76.30;32.50;;;;;;;12.03;89.17;100934.27;657849;1301;545548;-79
2023/04/20 05:47:20;;;;;;;74.80;44.30;;;;;;;12.50;89.50;100939.64;672644;1272;139896;-80
2023/04/20 06:02:24;;;;;;;115.50;63.50;;;;;;;12.85;89.57;100951.33;669381;1274;139309;-79
2023/04/20 06:17:28;;;;;;;45.20;23.00;;;;;;;13.31;89.18;100967.42;670941;1279;139198;-79
2023/04/20 06:32:31;;;;;;;19.60;12.10;;;;;;;13.92;87.90;100977.05;670410;1272;139047;-78
2023/04/20 06:47:34;;;;;;;21.90;12.90;;;;;;;14.43;85.15;100983.98;672262;1279;139581;-78
2023/04/20 07:02:43;;;;;;;25.50;14.40;;;;;;;14.86;83.54;100986.48;670716;1272;139791;-78
2023/04/20 07:23:49;;;;;;;22.10;12.60;;;;;;;15.99;80.98;100988.92;654805;1297;545108;-80
2023/04/20 07:38:52;;;;;;;31.80;17.10;;;;;;;16.98;77.57;100992.36;670223;1274;139201;-78
2023/04/20 07:53:56;;;;;;;25.60;14.50;;;;;;;18.01;75.83;101000.48;667958;1289;139399;-78
2023/04/20 08:08:59;;;;;;;27.20;16.10;;;;;;;18.93;73.59;101007.64;668577;1276;139921;-78
2023/04/20 08:24:03;;;;;;;19.30;9.80;;;;;;;18.60;71.68;101015.15;666693;1275;140404;-78
2023/04/20 08:39:10;;;;;;;14.80;7.80;;;;;;;18.83;67.75;101021.29;672582;1267;139138;-79
2023/04/20 08:54:14;;;;;;;28.40;16.20;;;;;;;19.92;65.57;101017.94;673980;1267;140104;-80
2023/04/20 09:09:21;;;;;;;20.30;10.30;;;;;;;21.96;62.62;101014.16;667755;1266;139384;-79
2023/04/20 09:24:32;;;;;;;16.80;8.00;;;;;;;23.60;63.93;101006.58;673039;1267;138902;-79
2023/04/20 09:39:41;;;;;;;12.10;5.90;;;;;;;24.67;61.23;101003.45;673344;1269;139476;-79
2023/04/20 09:54:45;;;;;;;15.70;8.20;;;;;;;24.69;52.62;101003.23;673772;1264;138841;-80
2023/04/20 10:09:48;;;;;;;17.40;6.20;;;;;;;25.30;51.07;100998.98;670852;1270;138324;-80
2023/04/20 10:24:51;;;;;;;9.20;4.20;;;;;;;25.61;48.94;100989.50;670396;1268;138745;-80
2023/04/20 10:39:55;;;;;;;12.80;4.30;;;;;;;26.06;47.10;100987.85;672328;1279;138274;-80
2023/04/20 10:54:58;;;;;;;20.70;9.70;;;;;;;26.36;44.05;100976.05;669863;1276;138870;-80
